Time;durP1;ratioP1;P1;durP2;ratioP2;P2;SDS_P1;SDS_P2;PMS_P1;PMS_P2;Temp;Humidity;BMP_temperature;BMP_pressure;BME280_temperature;BME280_humidity;BME280_pressure;Samples;Min_cycle;Max_cycle;Signal;HPM_P1;HPM_P2
2021/08/07 00:01:03;;;;;;;99.43;90.13;;;19.90;99.90;;;;;;5060959;28;20082;-74
2021/08/07 00:03:28;;;;;;;120.03;108.57;;;19.90;99.90;;;;;;5059670;28;20029;-76
2021/08/07 00:05:54;;;;;;;28.63;25.90;;;19.90;99.90;;;;;;5032875;28;20030;-75
2021/08/07 00:08:20;;;;;;;30.08;27.08;;;19.80;99.90;;;;;;5049129;28;20027;-75
2021/08/07 00:10:46;;;;;;;12.35;9.43;;;19.70;99.90;;;;;;5055654;28;20489;-76
2021/08/07 00:13:11;;;;;;;8.77;5.00;;;19.60;99.90;;;;;;5062637;28;20025;-76
2021/08/07 00:15:37;;;;;;;5.80;4.57;;;19.60;99.90;;;;;;5054336;28;20439;-77
2021/08/07 00:18:03;;;;;;;7.97;5.38;;;19.60;99.90;;;;;;5055094;28;20021;-83
2021/08/07 00:20:29;;;;;;;6.85;6.15;;;19.50;99.90;;;;;;5059339;28;20029;-77
2021/08/07 00:22:55;;;;;;;8.10;6.10;;;19.50;99.90;;;;;;5058761;28;20167;-80
2021/08/07 00:25:21;;;;;;;10.15;7.57;;;19.60;99.90;;;;;;5053383;28;20037;-77
2021/08/07 00:27:47;;;;;;;11.77;8.00;;;19.60;99.90;;;;;;5051642;28;20095;-82
2021/08/07 00:30:13;;;;;;;11.63;7.05;;;19.60;99.90;;;;;;5054528;28;20027;-83
2021/08/07 00:32:39;;;;;;;8.95;7.00;;;19.70;99.90;;;;;;5053065;28;20021;-79
2021/08/07 00:35:06;;;;;;;8.07;6.85;;;19.70;99.90;;;;;;5057670;28;20072;-78
2021/08/07 00:37:32;;;;;;;9.82;8.82;;;19.70;99.90;;;;;;5056021;28;20017;-78
2021/08/07 00:39:57;;;;;;;9.65;7.43;;;19.60;99.90;;;;;;5053414;28;20037;-78
2021/08/07 00:42:23;;;;;;;7.07;6.38;;;19.40;99.90;;;;;;5053830;28;20108;-77
2021/08/07 00:44:49;;;;;;;6.22;5.60;;;19.30;99.90;;;;;;5050784;28;20075;-78
2021/08/07 00:47:15;;;;;;;6.03;3.50;;;19.30;99.90;;;;;;5060170;28;20028;-77
2021/08/07 00:49:42;;;;;;;5.30;2.95;;;19.20;99.90;;;;;;5052396;28;20027;-77
2021/08/07 00:52:08;;;;;;;6.13;3.33;;;19.20;99.90;;;;;;5049892;28;20036;-76
2021/08/07 00:54:34;;;;;;;6.75;3.65;;;19.00;99.90;;;;;;5051812;28;20036;-76
2021/08/07 00:57:00;;;;;;;4.20;3.70;;;18.80;99.90;;;;;;5045787;28;20021;-76
2021/08/07 00:59:25;;;;;;;8.02;4.20;;;18.80;99.90;;;;;;5048455;28;20469;-76
2021/08/07 01:01:56;;;;;;;4.70;3.80;;;18.80;99.90;;;;;;5051783;28;20038;-75
2021/08/07 01:04:36;;;;;;;5.47;3.40;;;18.80;99.90;;;;;;5062674;28;20051;-75
2021/08/07 01:07:25;;;;;;;5.53;3.40;;;18.70;99.90;;;;;;5052681;28;20066;-74
2021/08/07 01:10:02;;;;;;;5.13;3.92;;;18.80;99.90;;;;;;5048618;28;20048;-75
2021/08/07 01:12:50;;;;;;;4.20;3.38;;;18.90;99.90;;;;;;5027284;28;20049;-74
2021/08/07 01:15:30;;;;;;;5.35;4.40;;;18.90;99.90;;;;;;5050577;28;20388;-75
2021/08/07 01:17:58;;;;;;;6.38;3.60;;;18.90;99.90;;;;;;5060592;28;20020;-74
2021/08/07 01:20:46;;;;;;;4.93;3.75;;;18.90;99.90;;;;;;5056104;28;20021;-74
2021/08/07 01:23:40;;;;;;;8.07;3.90;;;19.00;99.90;;;;;;5042827;28;20551;-74
2021/08/07 01:26:09;;;;;;;5.28;3.95;;;19.00;99.90;;;;;;5044582;28;20041;-75
2021/08/07 01:28:39;;;;;;;5.70;4.32;;;19.00;99.90;;;;;;5052821;28;20037;-74
2021/08/07 01:31:08;;;;;;;8.73;4.50;;;19.20;99.90;;;;;;5043209;28;20032;-74
2021/08/07 01:33:34;;;;;;;3.85;3.55;;;19.20;99.90;;;;;;5051242;28;20083;-77
2021/08/07 01:36:03;;;;;;;9.88;3.40;;;19.10;99.90;;;;;;5042122;28;21009;-74
2021/08/07 01:38:29;;;;;;;8.70;3.90;;;19.00;99.90;;;;;;5029695;28;20104;-73
2021/08/07 01:40:55;;;;;;;4.43;3.85;;;19.20;99.90;;;;;;5057452;28;20021;-74
2021/08/07 01:43:21;;;;;;;4.90;2.88;;;19.20;99.90;;;;;;5058543;28;20052;-74
2021/08/07 01:45:47;;;;;;;3.97;3.17;;;19.10;99.90;;;;;;5058997;28;20469;-74
2021/08/07 01:48:32;;;;;;;4.88;2.95;;;19.10;99.90;;;;;;5058070;28;20037;-74
2021/08/07 01:51:18;;;;;;;4.03;3.15;;;19.10;99.90;;;;;;5028963;28;20036;-75
2021/08/07 01:53:47;;;;;;;8.27;3.03;;;19.00;99.90;;;;;;5054102;28;20025;-75
2021/08/07 01:56:33;;;;;;;4.95;3.17;;;19.00;99.90;;;;;;5053852;28;20086;-75
2021/08/07 01:59:09;;;;;;;5.15;3.08;;;18.90;99.90;;;;;;5052584;28;20052;-74
2021/08/07 02:01:35;;;;;;;7.22;3.67;;;19.00;99.90;;;;;;5055607;28;20395;-80
2021/08/07 02:04:02;;;;;;;3.25;2.60;;;18.80;99.90;;;;;;5048573;28;20024;-79
2021/08/07 02:06:28;;;;;;;3.45;3.10;;;18.80;99.90;;;;;;5049689;28;20545;-77
2021/08/07 02:08:55;;;;;;;3.35;2.38;;;18.80;99.90;;;;;;5061084;28;20064;-80
2021/08/07 02:11:21;;;;;;;3.88;2.75;;;18.70;99.90;;;;;;5057639;28;20056;-79
2021/08/07 02:13:47;;;;;;;3.55;2.45;;;18.60;99.90;;;;;;5047678;28;20052;-77
2021/08/07 02:16:15;;;;;;;4.90;2.63;;;18.70;99.90;;;;;;5053962;28;20074;-77
2021/08/07 02:18:42;;;;;;;7.00;2.88;;;18.80;99.90;;;;;;5044067;28;20029;-77
2021/08/07 02:21:10;;;;;;;5.45;2.58;;;18.90;99.90;;;;;;5057685;28;20115;-76
2021/08/07 02:23:36;;;;;;;6.05;3.28;;;19.00;99.90;;;;;;5053389;28;20025;-76
2021/08/07 02:26:05;;;;;;;2.33;2.10;;;19.10;99.90;;;;;;5052284;28;20029;-76
2021/08/07 02:28:31;;;;;;;2.97;2.20;;;19.20;99.90;;;;;;5047898;28;20024;-76
2021/08/07 02:31:01;;;;;;;4.68;2.58;;;19.20;99.90;;;;;;5040505;28;20017;-75
2021/08/07 02:33:28;;;;;;;3.88;3.00;;;19.30;99.90;;;;;;5048378;28;20041;-76
2021/08/07 02:35:55;;;;;;;5.05;2.78;;;19.30;99.90;;;;;;5052067;28;20016;-82
2021/08/07 02:38:23;;;;;;;4.97;3.10;;;19.30;99.90;;;;;;5063415;28;20025;-77
2021/08/07 02:40:49;;;;;;;6.28;3.05;;;19.30;99.90;;;;;;5051820;28;20024;-76
2021/08/07 02:43:16;;;;;;;3.75;2.47;;;19.30;99.90;;;;;;5053841;28;20055;-77
2021/08/07 02:45:43;;;;;;;3.53;2.53;;;19.30;99.90;;;;;;5046112;28;20017;-83
2021/08/07 02:48:11;;;;;;;5.70;2.75;;;19.30;99.90;;;;;;5055723;28;20028;-80
2021/08/07 02:50:39;;;;;;;3.95;3.08;;;19.20;99.90;;;;;;5057603;28;20035;-78
2021/08/07 02:53:05;;;;;;;5.00;2.40;;;19.30;99.90;;;;;;5054822;28;20041;-77
2021/08/07 02:55:31;;;;;;;4.82;3.00;;;19.30;99.90;;;;;;5052256;28;20527;-76
2021/08/07 02:57:57;;;;;;;2.72;2.50;;;19.30;99.90;;;;;;5046425;28;20550;-76
2021/08/07 03:00:23;;;;;;;6.15;2.88;;;19.30;99.90;;;;;;5057331;28;20514;-76
2021/08/07 03:02:49;;;;;;;5.50;3.17;;;19.20;99.90;;;;;;5050563;28;20132;-76
2021/08/07 03:05:15;;;;;;;4.18;2.85;;;19.20;99.90;;;;;;5056022;28;20032;-76
2021/08/07 03:07:42;;;;;;;3.92;2.92;;;19.20;99.90;;;;;;5048589;28;20020;-75
2021/08/07 03:10:09;;;;;;;5.65;3.15;;;19.30;99.90;;;;;;5051986;28;20078;-76
2021/08/07 03:12:36;;;;;;;6.88;3.30;;;19.20;99.90;;;;;;5049980;28;20025;-76
2021/08/07 03:15:05;;;;;;;6.43;3.58;;;19.20;99.90;;;;;;5039793;28;20586;-76
2021/08/07 03:17:31;;;;;;;5.70;3.13;;;19.20;99.90;;;;;;5057904;28;20436;-76
2021/08/07 03:19:57;;;;;;;7.65;3.88;;;19.20;99.90;;;;;;5049960;28;20476;-75
2021/08/07 03:22:23;;;;;;;5.22;2.83;;;19.10;99.90;;;;;;5049742;28;20029;-75
2021/08/07 03:24:49;;;;;;;3.40;2.40;;;19.10;99.90;;;;;;5053610;28;20021;-75
2021/08/07 03:27:14;;;;;;;4.00;3.55;;;19.20;99.90;;;;;;5055313;28;20021;-75
2021/08/07 03:29:40;;;;;;;4.47;3.10;;;19.20;99.90;;;;;;5048651;28;20028;-75
2021/08/07 03:32:06;;;;;;;4.60;3.25;;;19.20;99.90;;;;;;5056557;28;20059;-75
2021/08/07 03:34:32;;;;;;;4.60;3.40;;;19.10;99.90;;;;;;5066120;28;20025;-75
2021/08/07 03:36:57;;;;;;;5.43;3.33;;;19.20;99.90;;;;;;5057713;28;20502;-75
2021/08/07 03:39:23;;;;;;;6.90;4.07;;;19.20;99.90;;;;;;5034287;28;20030;-75
2021/08/07 03:41:51;;;;;;;4.25;3.35;;;19.00;99.90;;;;;;5062623;28;20508;-74
2021/08/07 03:44:17;;;;;;;6.28;4.53;;;19.10;99.90;;;;;;5054676;28;20397;-75
2021/08/07 03:46:42;;;;;;;4.65;3.65;;;19.10;99.90;;;;;;5054042;28;20533;-75
2021/08/07 03:49:08;;;;;;;7.45;4.05;;;19.10;99.90;;;;;;5062638;28;20377;-75
2021/08/07 03:51:33;;;;;;;4.72;4.22;;;19.10;99.90;;;;;;5053421;28;20061;-75
2021/08/07 03:53:59;;;;;;;9.32;4.15;;;19.00;99.90;;;;;;5059301;28;20431;-75
2021/08/07 03:56:25;;;;;;;4.47;4.05;;;19.00;99.90;;;;;;5059578;28;20036;-75
2021/08/07 03:58:51;;;;;;;6.43;4.03;;;19.00;99.90;;;;;;5048798;28;20078;-76
2021/08/07 04:01:16;;;;;;;6.88;4.15;;;19.00;99.90;;;;;;5051233;28;20131;-75
2021/08/07 04:03:42;;;;;;;5.20;4.70;;;19.00;99.90;;;;;;5043139;28;20107;-76
2021/08/07 04:06:08;;;;;;;5.60;4.30;;;19.00;99.90;;;;;;5059072;28;20504;-75
2021/08/07 04:08:34;;;;;;;4.55;4.07;;;19.00;99.90;;;;;;5054212;28;20075;-76
2021/08/07 04:10:59;;;;;;;6.85;3.83;;;19.00;99.90;;;;;;5050651;28;20047;-75
2021/08/07 04:13:25;;;;;;;6.40;4.25;;;19.00;99.90;;;;;;5052861;28;20029;-75
2021/08/07 04:15:51;;;;;;;4.63;4.22;;;19.00;99.90;;;;;;5062609;28;20096;-75
2021/08/07 04:18:17;;;;;;;4.68;3.80;;;18.90;99.90;;;;;;5052814;28;20044;-75
2021/08/07 04:20:43;;;;;;;7.72;4.35;;;18.90;99.90;;;;;;5026599;28;20477;-75
2021/08/07 04:23:09;;;;;;;4.22;3.42;;;18.90;99.90;;;;;;5061895;28;20044;-75
2021/08/07 04:25:35;;;;;;;7.05;4.50;;;18.80;99.90;;;;;;5056280;28;20031;-75
2021/08/07 04:28:01;;;;;;;8.00;4.55;;;18.70;99.90;;;;;;5047905;28;20025;-75
2021/08/07 04:30:27;;;;;;;5.28;4.53;;;18.70;99.90;;;;;;5058851;28;20025;-75
2021/08/07 04:32:52;;;;;;;11.60;5.07;;;18.70;99.90;;;;;;5050716;28;20028;-75
2021/08/07 04:35:18;;;;;;;8.60;5.45;;;18.70;99.90;;;;;;5035577;28;20052;-75
2021/08/07 04:37:52;;;;;;;8.30;4.05;;;18.70;99.90;;;;;;5053652;28;20040;-74
2021/08/07 04:40:19;;;;;;;6.20;4.07;;;18.70;99.90;;;;;;5046220;28;20017;-75
2021/08/07 04:42:46;;;;;;;7.15;4.32;;;18.70;99.90;;;;;;5033557;28;20029;-74
2021/08/07 04:45:12;;;;;;;4.85;3.92;;;18.70;99.90;;;;;;5060663;28;20396;-74
2021/08/07 04:47:54;;;;;;;5.38;3.80;;;18.60;99.90;;;;;;5051736;28;20563;-75
2021/08/07 04:50:20;;;;;;;5.43;4.40;;;18.60;99.90;;;;;;5051767;28;20024;-75
2021/08/07 04:52:46;;;;;;;7.13;5.20;;;18.60;99.90;;;;;;5061191;28;20016;-74
2021/08/07 04:55:12;;;;;;;6.50;4.50;;;18.60;99.90;;;;;;5057472;28;20778;-75
2021/08/07 04:57:37;;;;;;;3.88;3.47;;;18.60;99.90;;;;;;5049115;28;20032;-75
2021/08/07 05:00:04;;;;;;;4.35;3.78;;;18.50;99.90;;;;;;5056004;28;20079;-75
2021/08/07 05:02:29;;;;;;;5.00;3.30;;;18.50;99.90;;;;;;5024394;28;20059;-74
2021/08/07 05:04:55;;;;;;;4.63;3.65;;;18.50;99.90;;;;;;5028955;28;20025;-74
2021/08/07 05:07:20;;;;;;;7.15;4.78;;;18.50;99.90;;;;;;5042717;28;20087;-75
2021/08/07 05:09:46;;;;;;;8.27;4.18;;;18.40;99.90;;;;;;5052781;28;20025;-75
2021/08/07 05:12:12;;;;;;;9.15;4.07;;;18.50;99.90;;;;;;5050897;28;20086;-74
2021/08/07 05:14:37;;;;;;;6.63;3.78;;;18.50;99.90;;;;;;5058563;28;20017;-75
2021/08/07 05:17:03;;;;;;;7.00;5.30;;;18.50;99.90;;;;;;5053316;28;20033;-74
2021/08/07 05:19:29;;;;;;;6.13;5.45;;;18.40;99.90;;;;;;5050544;28;20037;-75
2021/08/07 05:21:54;;;;;;;7.40;5.88;;;18.40;99.90;;;;;;5055913;28;20044;-74
2021/08/07 05:24:20;;;;;;;6.85;5.43;;;18.20;99.90;;;;;;5052299;28;20025;-75
2021/08/07 05:26:46;;;;;;;10.02;6.25;;;18.20;99.90;;;;;;5062210;28;20033;-75
2021/08/07 05:29:11;;;;;;;8.98;6.47;;;18.30;99.90;;;;;;5044688;28;20017;-75
2021/08/07 05:31:37;;;;;;;10.82;7.68;;;18.30;99.90;;;;;;5056450;28;20079;-74
2021/08/07 05:34:03;;;;;;;8.27;6.53;;;18.30;99.90;;;;;;5050917;28;20111;-74
2021/08/07 05:36:28;;;;;;;10.25;8.60;;;18.20;99.90;;;;;;5053262;28;20067;-75
2021/08/07 05:38:54;;;;;;;7.40;6.70;;;18.10;99.90;;;;;;5062389;28;20067;-74
2021/08/07 05:41:19;;;;;;;7.82;6.95;;;18.20;99.90;;;;;;5057551;28;20036;-74
2021/08/07 05:43:45;;;;;;;8.77;6.63;;;18.10;99.90;;;;;;5048250;28;20513;-75
2021/08/07 05:46:11;;;;;;;12.82;7.18;;;18.00;99.90;;;;;;5052081;28;20028;-75
2021/08/07 05:48:37;;;;;;;11.57;7.45;;;18.10;99.90;;;;;;5057409;28;20027;-75
2021/08/07 05:51:03;;;;;;;10.07;7.38;;;18.10;99.90;;;;;;5049274;28;20029;-75
2021/08/07 05:53:29;;;;;;;10.10;7.50;;;18.00;99.90;;;;;;5059122;28;20036;-75
2021/08/07 05:55:55;;;;;;;8.55;6.38;;;17.90;99.90;;;;;;5054849;28;20024;-75
2021/08/07 05:58:21;;;;;;;8.50;6.78;;;18.00;99.90;;;;;;5031649;28;20116;-75
2021/08/07 06:00:47;;;;;;;10.90;6.70;;;18.00;99.90;;;;;;5047640;28;20112;-75
2021/08/07 06:03:13;;;;;;;7.65;6.85;;;18.00;99.90;;;;;;5046050;28;20089;-75
2021/08/07 06:05:38;;;;;;;7.53;6.10;;;18.00;99.90;;;;;;5052701;28;20036;-75
2021/08/07 06:08:04;;;;;;;9.23;7.07;;;18.00;99.90;;;;;;5057865;28;20100;-75
2021/08/07 06:10:30;;;;;;;10.57;5.97;;;18.10;99.90;;;;;;5048998;28;20116;-75
2021/08/07 06:12:56;;;;;;;11.48;6.13;;;18.00;99.90;;;;;;5052877;28;20431;-75
2021/08/07 06:15:21;;;;;;;10.02;5.68;;;18.00;99.90;;;;;;5062460;28;20037;-75
2021/08/07 06:17:47;;;;;;;9.45;5.72;;;18.00;99.90;;;;;;5050660;28;20028;-75
2021/08/07 06:20:13;;;;;;;6.00;5.40;;;18.00;99.90;;;;;;5055321;28;20500;-76
2021/08/07 06:22:39;;;;;;;12.27;6.13;;;18.10;99.90;;;;;;5047146;28;20160;-76
2021/08/07 06:25:06;;;;;;;13.43;5.35;;;18.10;99.90;;;;;;5055849;28;20029;-76
2021/08/07 06:27:32;;;;;;;12.23;5.40;;;18.10;99.90;;;;;;5044635;28;20032;-76
2021/08/07 06:29:58;;;;;;;10.82;4.78;;;18.00;99.90;;;;;;5048019;28;20389;-75
2021/08/07 06:32:24;;;;;;;8.63;5.05;;;18.00;99.90;;;;;;5056888;28;20029;-75
2021/08/07 06:34:50;;;;;;;8.50;4.55;;;18.10;99.90;;;;;;5054561;28;20044;-76
2021/08/07 06:37:16;;;;;;;8.82;4.60;;;18.20;99.90;;;;;;5047996;28;20078;-76
2021/08/07 06:39:41;;;;;;;9.43;4.40;;;18.20;99.90;;;;;;5058043;28;20036;-76
2021/08/07 06:42:07;;;;;;;8.00;3.97;;;18.20;99.90;;;;;;5046057;28;20065;-76
2021/08/07 06:44:33;;;;;;;7.53;3.88;;;18.20;99.90;;;;;;5053727;28;20488;-75
2021/08/07 06:46:59;;;;;;;5.07;3.33;;;18.30;99.90;;;;;;5034032;28;20116;-75
2021/08/07 06:49:24;;;;;;;7.75;3.63;;;18.30;99.90;;;;;;5044212;28;20017;-75
2021/08/07 06:51:52;;;;;;;11.15;4.00;;;18.30;99.90;;;;;;5057751;28;20108;-75
2021/08/07 06:54:17;;;;;;;4.93;3.67;;;18.30;99.90;;;;;;5052783;28;20119;-75
2021/08/07 06:56:47;;;;;;;8.45;3.80;;;18.30;99.90;;;;;;5060898;28;20496;-75
2021/08/07 06:59:14;;;;;;;8.07;3.13;;;18.40;99.90;;;;;;5057822;28;20034;-75
2021/08/07 07:01:40;;;;;;;5.72;3.17;;;18.40;99.90;;;;;;5043219;28;20029;-75
2021/08/07 07:04:05;;;;;;;10.73;3.70;;;18.40;99.90;;;;;;5037648;28;20112;-75
2021/08/07 07:06:31;;;;;;;6.05;3.00;;;18.30;99.90;;;;;;5068423;28;20021;-75
2021/08/07 07:08:57;;;;;;;7.65;3.80;;;18.30;99.90;;;;;;5052664;28;20480;-75
2021/08/07 07:11:22;;;;;;;5.38;3.05;;;18.40;99.90;;;;;;5044772;28;20363;-74
2021/08/07 07:13:48;;;;;;;5.75;2.78;;;18.50;99.90;;;;;;5062928;28;20033;-75
2021/08/07 07:16:14;;;;;;;4.22;3.20;;;18.40;99.90;;;;;;5053283;28;20013;-75
2021/08/07 07:18:40;;;;;;;9.10;2.72;;;18.40;99.90;;;;;;5049133;28;20919;-75
2021/08/07 07:21:06;;;;;;;3.75;2.53;;;18.60;99.90;;;;;;5051431;28;20024;-75
2021/08/07 07:23:31;;;;;;;6.10;2.67;;;18.70;99.90;;;;;;5055665;28;20108;-75
2021/08/07 07:25:57;;;;;;;3.92;2.53;;;18.80;99.90;;;;;;5056913;28;20401;-74
2021/08/07 07:28:23;;;;;;;11.13;3.45;;;18.80;99.90;;;;;;5053413;28;20037;-74
2021/08/07 07:30:49;;;;;;;8.52;2.42;;;18.90;99.90;;;;;;5051326;28;20175;-75
2021/08/07 07:33:14;;;;;;;12.27;2.92;;;19.00;99.90;;;;;;5057379;28;20490;-74
2021/08/07 07:35:41;;;;;;;6.78;2.17;;;19.00;99.90;;;;;;5057531;28;20512;-74
2021/08/07 07:38:07;;;;;;;8.45;3.08;;;19.10;99.90;;;;;;5060038;28;20024;-74
2021/08/07 07:40:34;;;;;;;6.22;2.28;;;19.20;99.90;;;;;;5054516;28;20067;-74
2021/08/07 07:43:00;;;;;;;8.90;3.13;;;19.20;99.90;;;;;;5050137;28;20051;-74
2021/08/07 07:45:26;;;;;;;6.03;2.58;;;19.20;99.90;;;;;;5053756;28;20395;-74
2021/08/07 07:47:52;;;;;;;6.70;2.70;;;19.30;99.90;;;;;;5031248;28;20520;-74
2021/08/07 07:50:17;;;;;;;7.78;2.30;;;19.30;99.90;;;;;;5051818;28;20017;-74
2021/08/07 07:52:44;;;;;;;5.03;2.13;;;19.40;99.90;;;;;;5033210;28;20119;-75
2021/08/07 07:55:11;;;;;;;9.27;2.25;;;19.50;99.90;;;;;;5053963;28;20020;-75
2021/08/07 07:57:37;;;;;;;10.10;2.45;;;19.50;99.90;;;;;;5053734;28;20056;-75
2021/08/07 08:00:05;;;;;;;9.65;2.97;;;19.50;99.90;;;;;;5055570;28;20027;-75
2021/08/07 08:02:31;;;;;;;4.80;2.05;;;19.50;99.90;;;;;;5056030;28;20481;-75
2021/08/07 08:04:56;;;;;;;7.53;1.80;;;19.70;99.90;;;;;;5065885;28;20024;-75
2021/08/07 08:07:22;;;;;;;8.15;1.90;;;19.60;99.90;;;;;;5059641;28;20036;-74
2021/08/07 08:09:47;;;;;;;7.55;2.47;;;19.70;99.90;;;;;;5056432;28;20048;-74
2021/08/07 08:12:14;;;;;;;10.88;2.10;;;19.60;99.90;;;;;;5055055;28;20061;-75
2021/08/07 08:14:39;;;;;;;4.80;1.90;;;19.60;99.90;;;;;;5038265;28;20044;-74
2021/08/07 08:17:05;;;;;;;5.20;1.98;;;19.60;99.90;;;;;;5043124;28;20441;-75
2021/08/07 08:19:31;;;;;;;11.40;2.60;;;19.80;99.90;;;;;;5052792;28;20035;-75
2021/08/07 08:21:56;;;;;;;8.05;2.67;;;19.90;99.90;;;;;;5057488;28;20037;-75
2021/08/07 08:24:22;;;;;;;7.97;1.92;;;20.00;99.90;;;;;;5053602;28;20052;-75
2021/08/07 08:26:48;;;;;;;9.70;2.20;;;20.00;99.90;;;;;;5048495;28;20033;-75
2021/08/07 08:29:14;;;;;;;3.55;1.90;;;20.10;99.90;;;;;;5055908;28;20464;-76
2021/08/07 08:31:39;;;;;;;5.10;1.65;;;20.30;99.90;;;;;;5051634;28;20520;-75
2021/08/07 08:34:05;;;;;;;109.13;12.23;;;20.30;99.90;;;;;;5052601;28;20319;-75
2021/08/07 08:36:31;;;;;;;298.13;33.70;;;20.30;99.90;;;;;;5054908;28;20473;-75
2021/08/07 08:38:57;;;;;;;1024.65;133.82;;;20.40;99.90;;;;;;5053125;28;20122;-74
2021/08/07 08:41:23;;;;;;;13.15;2.67;;;20.50;99.90;;;;;;5050959;28;20068;-74
2021/08/07 08:43:51;;;;;;;7.53;2.03;;;20.50;99.90;;;;;;5050156;28;20032;-75
2021/08/07 08:46:19;;;;;;;6.35;1.90;;;20.40;99.90;;;;;;5050070;28;20074;-75
2021/08/07 08:48:45;;;;;;;8.80;2.25;;;20.40;99.90;;;;;;5058634;28;20385;-74
2021/08/07 08:51:12;;;;;;;4.60;1.90;;;20.40;99.90;;;;;;5054845;28;20476;-74
2021/08/07 08:53:44;;;;;;;6.88;1.90;;;20.50;99.90;;;;;;5030155;28;20022;-74
2021/08/07 08:56:09;;;;;;;8.48;1.73;;;20.40;99.90;;;;;;5049815;28;20020;-74
2021/08/07 08:58:38;;;;;;;6.03;2.10;;;20.50;99.90;;;;;;5053534;28;20548;-74
2021/08/07 09:01:05;;;;;;;8.52;2.70;;;20.30;99.90;;;;;;5050609;28;20026;-74
2021/08/07 09:03:31;;;;;;;9.55;2.63;;;20.30;99.90;;;;;;5050228;28;20496;-74
2021/08/07 09:05:56;;;;;;;8.85;1.55;;;20.30;99.90;;;;;;5056770;28;20114;-73
2021/08/07 09:08:22;;;;;;;8.43;2.03;;;20.40;99.90;;;;;;5049942;28;20064;-72
2021/08/07 09:11:19;;;;;;;7.22;1.80;;;20.70;99.90;;;;;;5057464;28;20094;-73
2021/08/07 09:13:45;;;;;;;7.63;2.00;;;20.80;99.90;;;;;;5047549;28;20032;-72
2021/08/07 09:16:11;;;;;;;5.63;1.90;;;21.10;99.90;;;;;;5058466;28;20550;-72
2021/08/07 09:18:37;;;;;;;4.97;1.77;;;21.60;99.90;;;;;;5050803;28;20059;-73
2021/08/07 09:21:17;;;;;;;12.25;2.08;;;21.50;99.90;;;;;;5058217;28;20060;-74
2021/08/07 09:23:43;;;;;;;9.82;1.80;;;21.50;99.90;;;;;;5049420;28;20497;-74
2021/08/07 09:26:23;;;;;;;7.05;2.05;;;21.40;99.90;;;;;;5058093;28;20024;-74
2021/08/07 09:28:54;;;;;;;3.53;1.25;;;21.30;99.90;;;;;;5054256;28;20488;-75
2021/08/07 09:31:21;;;;;;;5.13;1.38;;;21.10;99.90;;;;;;5058058;28;20032;-74
2021/08/07 09:34:16;;;;;;;6.63;1.65;;;21.00;99.90;;;;;;5053222;28;20100;-74
2021/08/07 09:36:44;;;;;;;7.15;1.88;;;21.20;99.90;;;;;;5051637;28;20068;-74
2021/08/07 09:39:09;;;;;;;5.70;1.42;;;21.60;99.90;;;;;;5051450;28;20025;-75
2021/08/07 09:41:57;;;;;;;7.45;1.98;;;21.70;99.90;;;;;;5055897;28;20021;-75
2021/08/07 09:44:23;;;;;;;8.88;1.90;;;21.90;99.90;;;;;;5052001;28;20388;-75
2021/08/07 09:46:49;;;;;;;7.50;1.55;;;22.30;99.90;;;;;;5055260;28;20036;-75
2021/08/07 09:49:14;;;;;;;7.47;1.58;;;22.30;99.90;;;;;;5065126;28;20021;-74
2021/08/07 09:51:40;;;;;;;4.63;1.42;;;22.20;99.90;;;;;;5058626;28;20534;-75
2021/08/07 09:54:18;;;;;;;6.30;1.40;;;22.50;99.90;;;;;;5045195;28;20032;-75
2021/08/07 09:56:45;;;;;;;8.70;1.52;;;22.60;99.90;;;;;;5053606;28;20025;-75
2021/08/07 09:59:11;;;;;;;3.10;1.52;;;22.50;99.90;;;;;;5043623;28;20025;-75
2021/08/07 10:01:37;;;;;;;6.88;1.40;;;22.70;99.90;;;;;;5055409;28;20477;-74
2021/08/07 10:04:08;;;;;;;6.43;1.98;;;23.00;99.90;;;;;;5052998;28;20040;-75
2021/08/07 10:06:36;;;;;;;5.95;1.27;;;23.20;99.90;;;;;;5049497;28;20029;-75
2021/08/07 10:09:02;;;;;;;6.22;1.27;;;22.90;99.90;;;;;;5057213;28;20021;-75
2021/08/07 10:11:29;;;;;;;3.95;1.45;;;22.80;99.90;;;;;;5059718;28;20052;-74
2021/08/07 10:13:55;;;;;;;5.70;1.88;;;23.00;99.90;;;;;;5061658;28;20125;-75
2021/08/07 10:16:22;;;;;;;4.15;1.25;;;23.10;99.90;;;;;;5051076;28;20033;-75
2021/08/07 10:18:49;;;;;;;4.70;1.40;;;23.00;99.90;;;;;;5049233;28;20104;-75
2021/08/07 10:21:16;;;;;;;2.72;0.90;;;23.20;99.90;;;;;;5049661;28;20104;-75
2021/08/07 10:23:42;;;;;;;6.55;1.45;;;23.00;99.90;;;;;;5047595;28;20041;-75
2021/08/07 10:26:12;;;;;;;5.38;1.00;;;23.50;99.90;;;;;;5051581;28;20020;-75
2021/08/07 10:28:47;;;;;;;4.00;1.33;;;23.80;99.90;;;;;;5050616;28;20087;-75
2021/08/07 10:31:15;;;;;;;6.13;1.60;;;24.10;99.90;;;;;;5063280;28;20024;-75
2021/08/07 10:33:43;;;;;;;6.70;1.80;;;24.00;99.90;;;;;;5052690;28;21011;-75
2021/08/07 10:36:11;;;;;;;3.42;1.75;;;23.70;99.90;;;;;;5048782;28;20111;-75
2021/08/07 10:38:37;;;;;;;6.38;1.25;;;23.80;99.90;;;;;;5055866;28;20489;-75
2021/08/07 10:41:04;;;;;;;2.03;0.90;;;23.70;99.90;;;;;;5049040;28;20542;-75
2021/08/07 10:43:35;;;;;;;3.83;1.30;;;23.50;99.90;;;;;;5049591;28;20052;-75
2021/08/07 10:46:04;;;;;;;4.50;1.00;;;23.70;99.90;;;;;;5048482;28;20034;-73
2021/08/07 10:48:44;;;;;;;7.53;1.50;;;23.60;99.90;;;;;;5050236;28;20432;-74
2021/08/07 10:51:19;;;;;;;3.92;1.17;;;23.70;99.90;;;;;;5046246;28;20029;-74
2021/08/07 10:53:53;;;;;;;3.70;1.50;;;23.80;99.90;;;;;;5045193;28;20123;-75
2021/08/07 10:56:38;;;;;;;3.90;1.08;;;23.80;99.90;;;;;;5049479;28;20025;-75
2021/08/07 10:59:10;;;;;;;1.80;0.98;;;24.20;99.90;;;;;;5027735;28;20021;-75
2021/08/07 11:01:37;;;;;;;2.93;1.10;;;24.10;99.90;;;;;;5048659;28;20107;-75
2021/08/07 11:04:02;;;;;;;4.28;1.00;;;23.80;99.90;;;;;;5044979;28;20637;-75
2021/08/07 11:06:43;;;;;;;2.65;1.05;;;24.00;99.90;;;;;;5042042;28;20029;-75
2021/08/07 11:09:16;;;;;;;5.18;1.33;;;23.90;99.90;;;;;;5051412;28;20024;-75
2021/08/07 11:11:43;;;;;;;6.35;1.33;;;24.10;99.90;;;;;;5046631;28;20112;-75
2021/08/07 11:14:28;;;;;;;4.00;1.55;;;24.00;99.90;;;;;;5049214;28;20497;-75
2021/08/07 11:17:03;;;;;;;3.83;1.30;;;24.40;99.90;;;;;;5051354;28;20021;-75
2021/08/07 11:19:48;;;;;;;5.03;2.00;;;24.20;99.90;;;;;;5051869;28;20425;-75
2021/08/07 11:22:16;;;;;;;5.07;1.33;;;24.00;99.90;;;;;;5048351;28;20025;-75
2021/08/07 11:24:56;;;;;;;3.63;1.42;;;24.00;99.90;;;;;;5047457;28;20032;-75
2021/08/07 11:27:45;;;;;;;3.72;1.08;;;23.80;99.90;;;;;;5053134;28;20033;-76
2021/08/07 11:30:35;;;;;;;4.47;1.15;;;24.00;99.90;;;;;;5050483;28;20091;-75
2021/08/07 11:33:01;;;;;;;3.97;1.15;;;24.30;99.90;;;;;;5049164;28;20028;-75
2021/08/07 11:35:33;;;;;;;3.55;1.17;;;24.50;99.90;;;;;;5056139;28;20040;-74
2021/08/07 11:38:15;;;;;;;3.53;1.27;;;24.20;99.90;;;;;;5053402;28;20017;-74
2021/08/07 11:40:40;;;;;;;5.20;1.23;;;24.10;99.90;;;;;;5062587;28;20025;-75
2021/08/07 11:43:34;;;;;;;6.88;1.40;;;24.20;99.90;;;;;;5049853;28;20480;-75
2021/08/07 11:45:59;;;;;;;1.73;0.80;;;24.50;99.90;;;;;;5044899;28;20551;-75
2021/08/07 11:48:26;;;;;;;2.90;1.00;;;24.30;99.90;;;;;;5047919;28;20118;-75
2021/08/07 11:50:53;;;;;;;1.98;1.10;;;24.10;99.90;;;;;;5054877;28;20033;-78
2021/08/07 11:53:20;;;;;;;4.50;1.20;;;23.90;99.90;;;;;;5057980;28;20096;-75
2021/08/07 11:55:58;;;;;;;1.88;0.93;;;23.80;99.90;;;;;;5051098;28;20021;-74
2021/08/07 11:58:25;;;;;;;4.85;1.13;;;23.70;99.90;;;;;;5057332;28;20028;-75
2021/08/07 12:01:00;;;;;;;5.57;1.70;;;23.60;99.90;;;;;;5055871;28;20484;-75
2021/08/07 12:03:27;;;;;;;8.57;1.10;;;23.80;99.90;;;;;;5052569;28;20155;-75
2021/08/07 12:05:55;;;;;;;2.72;0.90;;;23.70;99.90;;;;;;5064880;28;20021;-75
2021/08/07 12:08:23;;;;;;;2.55;1.25;;;23.80;99.90;;;;;;5064550;28;20072;-75
2021/08/07 12:10:55;;;;;;;4.15;1.17;;;24.10;99.90;;;;;;5061324;28;20025;-75
2021/08/07 12:13:26;;;;;;;2.65;1.15;;;24.40;99.90;;;;;;5045235;28;20033;-75
2021/08/07 12:16:04;;;;;;;2.88;1.10;;;24.60;99.90;;;;;;5055411;28;20061;-75
2021/08/07 12:18:54;;;;;;;2.10;1.00;;;24.40;99.90;;;;;;5065890;28;20031;-74
2021/08/07 12:21:22;;;;;;;2.97;1.13;;;23.90;99.90;;;;;;5059419;28;20021;-75
2021/08/07 12:23:51;;;;;;;2.50;1.30;;;24.10;99.90;;;;;;5054808;28;20082;-75
2021/08/07 12:26:20;;;;;;;2.25;0.98;;;24.00;99.90;;;;;;5058874;28;20032;-75
2021/08/07 12:28:47;;;;;;;2.50;1.33;;;24.00;99.90;;;;;;5049666;28;20051;-74
2021/08/07 12:31:13;;;;;;;5.05;1.27;;;23.80;99.90;;;;;;5050788;28;20086;-74
2021/08/07 12:33:44;;;;;;;2.40;1.02;;;23.70;99.90;;;;;;5062926;28;20057;-74
2021/08/07 12:36:18;;;;;;;5.18;1.15;;;23.70;99.90;;;;;;5056755;28;20025;-74
2021/08/07 12:38:46;;;;;;;4.32;1.35;;;23.50;99.90;;;;;;5050203;28;20033;-75
2021/08/07 12:41:14;;;;;;;4.50;0.98;;;23.30;99.90;;;;;;5052493;28;20033;-74
2021/08/07 12:43:40;;;;;;;3.25;1.42;;;23.30;99.90;;;;;;5055423;28;20039;-77
2021/08/07 12:46:09;;;;;;;5.75;1.95;;;23.20;99.90;;;;;;5051326;28;20024;-75
2021/08/07 12:48:50;;;;;;;4.38;1.45;;;23.10;99.90;;;;;;5057392;28;20502;-77
2021/08/07 12:51:33;;;;;;;5.57;1.50;;;22.90;99.90;;;;;;5056264;28;20218;-77